Latest Weather Observations for Kununurra Airport

IDD60801

Issued at 6:03 pm CST Friday 19 December 2014 (issued every 30 minutes, with the page automatically refreshed every 10 minutes)

About weather observations | Map of weather stations | Latest weather observations for NT | Other Formats
Station Details ID: 002056 Name: KUNUNURRA AERO Lat: -15.78 Lon: 128.71 Height: 44.0 m
Data from the previous 72 hours. | See also: Recent months at Kununurra Airport
Date/Time
CST
Temp
°C
App
Temp
°C
Dew
Point
Rel
Hum
%
Delta-T
°C
Wind Press
QNH
hPa
Press
MSL
hPa
Rain
since 9 am
mm
Dir
 
Spd
km/h
Gust
km/h
Spd
kts
Gust
kts
19/06:00pm 34.6 35.7 22.4 49 8.4 E 20 24 11 13 1005.3 - 0.0
19/05:30pm 35.5 38.1 20.5 41 10.1 W 7 9 4 5 1005.1 - 0.0
19/05:00pm 34.5 35.8 20.2 43 9.6 S 13 20 7 11 1004.9 - 0.0
19/04:30pm 36.0 34.5 22.1 44 9.6 ESE 33 41 18 22 1004.9 1004.5 0.0
19/04:25pm 37.4 36.3 21.0 38 11.2 E 28 46 15 25 1004.9 - 0.0
19/04:00pm 39.4 38.6 19.3 31 13.5 SE 22 32 12 17 1005.3 - 0.0
19/03:48pm 38.0 36.5 20.3 35 12.0 SE 28 37 15 20 1005.4 - 0.0
19/03:30pm 39.3 40.4 19.7 32 13.2 S 13 17 7 9 1005.8 - 0.0
19/03:00pm 39.4 41.4 20.0 32 13.1 SE 9 15 5 8 1006.4 - 0.0
19/02:30pm 39.3 40.2 19.3 31 13.4 S 13 22 7 12 1007.2 - 0.0
19/02:00pm 39.1 40.9 19.6 32 13.1 S 9 17 5 9 1007.8 - 0.0
19/01:30pm 37.7 39.0 19.3 34 12.3 SSW 11 24 6 13 1008.4 1008.1 0.0
19/01:00pm 38.1 38.2 18.4 31 13.0 S 15 20 8 11 1008.9 - 0.0
19/12:30pm 37.5 36.8 18.2 32 12.7 SE 19 24 10 13 1009.3 - 0.0
19/12:00pm 37.5 38.5 19.4 34 12.1 SE 13 19 7 10 1009.8 - 0.0
19/11:30am 36.1 37.2 20.5 40 10.5 SSE 15 24 8 13 1010.4 - 0.0
19/11:00am 35.0 37.5 21.8 46 9.0 SE 11 20 6 11 1010.7 - 0.0
19/10:30am 34.9 38.2 22.6 49 8.5 SE 9 17 5 9 1011.1 1010.8 1.0
19/10:00am 32.8 36.4 23.1 56 6.7 ESE 9 13 5 7 1011.2 - 1.0
19/09:30am 31.6 35.8 23.4 61 5.7 ESE 7 11 4 6 1011.1 - 1.0
19/09:00am 30.7 35.1 23.5 65 5.0 ESE 6 9 3 5 1011.2 - 1.0
19/08:30am 29.9 34.7 22.9 66 4.8 SSW 2 7 1 4 1010.7 - 0.8
19/08:00am 29.1 34.2 23.4 71 3.9 N 2 6 1 3 1010.4 - 0.8
19/07:30am 27.8 32.5 24.0 80 2.6 ENE 6 9 3 5 1010.1 1009.8 0.8
19/07:00am 27.2 33.0 23.9 82 2.3 CALM 0 0 0 0 1009.7 - 0.8
19/06:30am 27.3 32.8 23.4 79 2.7 CALM 0 0 0 0 1009.3 - 0.8
19/06:00am 27.5 31.7 23.1 77 3.0 SSW 6 7 3 4 1008.9 - 0.8
19/05:30am 27.6 31.0 22.7 74 3.3 SSW 9 9 5 5 1008.8 - 0.8
19/05:00am 27.8 31.6 22.7 74 3.5 SSW 7 9 4 5 1008.6 - 0.8
19/04:30am 27.8 30.3 22.5 73 3.6 SW 13 15 7 8 1008.7 1008.4 0.8
19/04:00am 27.7 30.2 22.5 73 3.5 SW 13 17 7 9 1008.8 - 0.8
19/03:30am 28.2 31.1 22.5 71 3.9 SSW 11 13 6 7 1009.0 - 0.8
19/03:00am 28.1 30.7 22.7 72 3.7 SW 13 17 7 9 1008.8 - 0.8
19/02:30am 28.0 30.6 22.7 73 3.6 SW 13 19 7 10 1008.8 - 0.8
19/02:00am 27.4 31.5 23.9 81 2.4 WSW 9 15 5 8 1009.1 - 0.8
19/01:30am 27.2 32.1 24.6 86 1.8 WNW 7 9 4 5 1009.5 1009.2 0.8
19/01:00am 27.2 33.0 25.2 89 1.4 NW 4 9 2 5 1010.0 - 0.8
19/12:30am 27.0 31.9 24.7 87 1.6 WNW 7 9 4 5 1010.2 - 0.8
19/12:00am 27.2 32.7 24.6 86 1.8 N 4 9 2 5 1010.2 - 0.8
 
Date/Time
CST
Temp
°C
App
Temp
°C
Dew
Point
Rel
Hum
%
Delta-T
°C
Wind Press
QNH
hPa
Press
MSL
hPa
Rain
since 9 am
mm
Dir
 
Spd
km/h
Gust
km/h
Spd
kts
Gust
kts
18/11:30pm 27.8 32.5 24.3 81 2.4 NNE 7 11 4 6 1010.0 - 0.8
18/11:00pm 28.6 33.3 24.3 77 3.0 SE 7 13 4 7 1009.7 - 0.8
18/10:30pm 28.8 32.7 23.6 73 3.6 ESE 9 11 5 6 1009.2 1008.9 0.8
18/10:00pm 29.0 32.7 23.2 71 4.0 SSE 9 13 5 7 1009.0 - 0.8
18/09:30pm 29.4 32.6 23.0 68 4.4 SE 11 17 6 9 1009.6 - 0.8
18/09:00pm 28.6 32.6 23.7 75 3.4 ESE 9 11 5 6 1009.7 - 0.8
18/08:30pm 28.9 32.3 22.7 69 4.2 SSE 9 13 5 7 1009.2 - 0.8
18/08:00pm 28.8 32.3 22.8 70 4.1 SE 9 15 5 8 1009.0 - 0.8
18/07:30pm 28.5 30.3 22.5 70 4.1 SSE 17 20 9 11 1008.7 1008.4 0.8
18/07:00pm 28.3 33.0 24.3 79 2.8 E 7 11 4 6 1008.8 - 0.4
18/06:31pm 29.6 28.7 21.4 61 5.5 SSE 28 46 15 25 1007.5 - 0.0
18/06:30pm 30.0 28.8 21.5 60 5.7 SSE 30 46 16 25 1007.5 - 0.0
18/06:00pm 34.1 34.5 21.8 48 8.4 SSE 22 41 12 22 1007.0 - 0.0
18/05:30pm 35.7 37.6 22.7 47 9.0 N 17 24 9 13 1005.9 - 0.0
18/05:00pm 36.1 36.9 22.5 45 9.4 N 22 37 12 20 1005.5 - 0.0
18/04:30pm 39.6 40.0 18.1 28 14.2 S 13 15 7 8 1004.6 1004.2 0.0
18/04:00pm 39.1 39.7 17.6 28 14.1 SSW 11 15 6 8 1004.6 - 0.0
18/03:30pm 39.3 40.2 17.5 28 14.3 S 9 17 5 9 1005.2 - 0.0
18/03:00pm 38.8 39.5 18.0 29 13.7 ESE 11 15 6 8 1005.7 - 0.0
18/02:30pm 38.2 39.1 19.2 33 12.7 SE 13 22 7 12 1006.2 - 0.0
18/02:00pm 38.0 38.3 18.7 32 12.8 ESE 15 22 8 12 1006.8 - 0.0
18/01:30pm 37.7 37.1 18.9 33 12.5 SE 20 26 11 14 1007.7 1007.4 0.0
18/01:00pm 37.1 37.0 20.0 37 11.5 SE 20 26 11 14 1008.3 - 0.0
18/12:30pm 35.9 36.3 21.0 42 10.1 ESE 20 24 11 13 1008.9 - 0.0
18/12:00pm 36.2 37.8 22.1 44 9.7 SSE 17 22 9 12 1009.2 - 0.0
18/11:30am 36.2 38.1 21.4 42 10.1 SSE 13 20 7 11 1009.3 - 0.0
18/11:00am 35.9 39.6 22.6 46 9.2 SSE 7 13 4 7 1009.6 - 0.0
18/10:30am 34.7 38.3 23.7 52 7.7 SSE 11 17 6 9 1009.8 1009.5 0.0
18/10:00am 33.4 37.9 24.6 60 6.2 S 9 13 5 7 1009.8 - 0.0
18/09:30am 32.0 37.2 25.1 67 4.9 ENE 7 9 4 5 1009.6 - 0.0
18/09:00am 30.4 35.7 25.8 76 3.3 N 9 15 5 8 1009.4 - 0.0
18/08:30am 30.0 35.8 25.8 78 3.0 NNW 6 9 3 5 1009.2 - 0.0
18/08:00am 30.0 35.3 25.3 76 3.3 NE 7 9 4 5 1009.0 - 0.0
18/07:30am 29.0 34.7 25.0 79 2.8 NE 4 7 2 4 1008.6 1008.3 0.0
18/07:00am 27.3 33.4 24.4 84 2.0 CALM 0 0 0 0 1008.1 - 0.0
18/06:30am 26.6 32.3 23.7 84 2.0 CALM 0 0 0 0 1007.6 - 0.0
18/06:00am 26.6 32.6 24.3 87 1.6 CALM 0 0 0 0 1007.2 - 0.0
18/05:30am 26.5 31.3 24.2 87 1.6 N 6 9 3 5 1006.8 - 0.0
18/05:00am 26.3 31.0 24.0 87 1.6 NW 6 7 3 4 1006.6 - 0.0
18/04:30am 26.4 32.3 24.1 87 1.6 CALM 0 0 0 0 1006.3 1005.9 0.0
18/04:00am 26.6 31.9 24.3 87 1.6 SSW 4 7 2 4 1006.2 - 0.0
18/03:30am 26.1 30.8 23.9 88 1.5 WNW 6 7 3 4 1006.3 - 0.0
18/03:00am 26.5 30.8 23.7 84 1.9 NW 7 7 4 4 1006.3 - 0.0
18/02:30am 26.5 31.0 23.6 84 2.0 NW 6 7 3 4 1006.1 - 0.0
18/02:00am 27.1 32.3 23.6 81 2.4 NNE 2 7 1 4 1006.2 - 0.0
18/01:30am 27.1 32.5 23.3 80 2.6 CALM 0 0 0 0 1006.2 1005.8 0.0
18/01:00am 27.3 33.0 23.7 81 2.5 CALM 0 0 0 0 1006.3 - 0.0
18/12:30am 27.4 33.0 23.6 80 2.6 CALM 0 0 0 0 1006.5 - 0.0
18/12:00am 27.5 33.1 23.6 79 2.7 CALM 0 6 0 3 1007.2 - 0.0
 
Date/Time
CST
Temp
°C
App
Temp
°C
Dew
Point
Rel
Hum
%
Delta-T
°C
Wind Press
QNH
hPa
Press
MSL
hPa
Rain
since 9 am
mm
Dir
 
Spd
km/h
Gust
km/h
Spd
kts
Gust
kts
17/11:30pm 27.3 31.7 23.4 79 2.7 NW 6 9 3 5 1007.4 - 0.0
17/11:00pm 28.0 31.3 23.2 75 3.3 NNE 11 13 6 7 1008.0 - 0.0
17/10:30pm 27.8 30.7 23.1 75 3.2 NNE 13 15 7 8 1007.7 1007.4 0.0
17/10:00pm 27.8 31.4 23.0 75 3.3 N 9 13 5 7 1007.5 - 0.0
17/09:30pm 28.0 31.0 22.6 72 3.7 NNE 11 15 6 8 1007.8 - 0.0
17/09:00pm 28.1 31.4 22.5 71 3.8 N 9 11 5 6 1007.2 - 0.0
17/08:30pm 28.7 31.1 22.2 68 4.4 NE 13 17 7 9 1007.0 - 0.0
17/08:00pm 28.5 31.6 22.1 68 4.3 NE 9 13 5 7 1007.0 - 0.0
17/07:30pm 28.4 31.9 22.2 69 4.2 NW 7 11 4 6 1006.4 1006.0 0.0
17/07:00pm 28.3 31.0 22.2 69 4.1 NNW 11 17 6 9 1005.8 - 0.0
17/06:30pm 29.4 31.4 22.2 65 4.9 NNE 15 19 8 10 1005.5 - 0.0
17/06:00pm 30.5 31.9 21.1 57 6.3 NNE 15 17 8 9 1004.9 - 0.0
17/05:30pm 30.6 32.7 20.9 56 6.5 NE 11 13 6 7 1004.0 - 0.0
17/05:00pm 30.3 32.5 20.5 55 6.5 NNW 9 11 5 6 1003.6 - 0.0
17/04:30pm 30.2 32.5 20.6 56 6.4 NNE 9 13 5 7 1004.2 1003.8 0.0
17/04:00pm 29.7 32.4 20.7 58 6.0 N 7 11 4 6 1004.9 - 0.0
17/03:30pm 29.4 30.4 20.3 58 6.0 WNW 15 22 8 12 1005.5 - 0.0
17/03:00pm 29.1 28.9 21.3 62 5.2 WNW 24 30 13 16 1006.1 - 0.0
17/02:30pm 28.7 26.0 20.4 60 5.5 N 35 46 19 25 1005.4 - 0.0
17/02:22pm 29.4 25.6 21.4 62 5.4 N 43 61 23 33 1005.6 - 0.0
17/02:17pm 29.8 26.3 21.8 62 5.4 N 43 57 23 31 1005.9 - 0.0
17/02:13pm 29.7 22.5 21.4 61 5.6 N 61 83 33 45 1005.5 - 0.0
17/02:10pm 30.8 27.1 21.6 58 6.2 N 43 76 23 41 - - 0.0
17/02:07pm 31.4 28.4 21.3 55 6.8 N 39 48 21 26 1005.5 - 0.0
17/02:04pm 34.3 32.6 20.5 44 9.3 NE 30 57 16 31 1005.5 - 0.0
17/02:00pm 38.7 37.9 17.9 29 13.6 ESE 19 28 10 15 1004.7 - 0.0
17/01:30pm 39.4 39.1 19.1 30 13.6 SE 19 26 10 14 1004.4 1004.0 0.0
17/01:00pm 38.2 39.1 21.6 38 11.4 S 19 28 10 15 1004.9 - 0.0
17/12:30pm 38.5 39.5 22.9 40 10.9 ESE 22 30 12 16 1005.7 - 0.0
17/12:00pm 37.7 39.4 22.3 41 10.7 SE 17 24 9 13 1006.7 - 0.0
17/11:30am 37.3 39.1 23.3 44 9.8 SE 19 26 10 14 1007.1 - 0.0
17/11:00am 36.8 38.8 22.9 44 9.7 ESE 17 26 9 14 1007.2 - 0.0
17/10:30am 35.6 38.5 23.9 51 8.2 ESE 15 19 8 10 1007.4 1007.1 0.0
17/10:00am 35.0 38.7 24.5 54 7.4 ESE 13 17 7 9 1007.5 - 0.0
17/09:30am 33.8 38.8 24.8 59 6.4 S 7 13 4 7 1007.7 - 0.0
17/09:00am 33.3 39.7 26.7 68 4.8 SE 6 9 3 5 1007.8 - 0.0
17/08:30am 31.5 37.6 26.2 73 3.8 NNE 6 9 3 5 1007.6 - 0.0
17/08:00am 30.8 37.2 26.6 78 3.0 NE 6 7 3 4 1007.2 - 0.0
17/07:30am 30.3 36.7 26.7 81 2.6 SE 6 7 3 4 1006.8 1006.4 0.0
17/07:00am 28.9 34.6 26.5 87 1.7 SE 9 13 5 7 1006.4 - 0.0
17/06:30am 28.4 34.4 26.4 89 1.4 ESE 7 7 4 4 1005.9 - 0.0
17/06:00am 28.8 35.4 26.4 87 1.7 ESE 4 7 2 4 1005.2 - 0.0
17/05:30am 28.5 35.8 26.3 88 1.6 CALM 0 0 0 0 1005.1 - 0.0
17/05:00am 28.9 34.4 26.1 85 2.0 NNE 9 11 5 6 1004.8 - 0.0
17/04:30am 28.9 34.6 25.9 84 2.1 ENE 7 9 4 5 1004.7 1004.3 0.0
17/04:00am 28.7 34.7 26.0 85 1.9 N 6 7 3 4 1004.5 - 0.0
17/03:30am 28.8 34.2 26.0 85 2.0 N 9 13 5 7 1004.5 - 0.0
17/03:00am 29.1 34.0 25.9 83 2.3 NNE 11 13 6 7 1004.8 - 0.0
17/02:30am 29.3 33.8 25.8 81 2.5 N 13 17 7 9 1004.9 - 0.0
17/02:00am 29.2 34.1 25.8 82 2.4 N 11 15 6 8 1005.1 - 0.0
17/01:30am 29.3 34.4 26.1 83 2.3 N 11 13 6 7 1005.4 1005.0 0.0
17/01:00am 29.9 34.7 25.7 78 3.0 N 11 13 6 7 1005.8 - 0.0
17/12:30am 30.1 35.4 25.9 78 3.0 NNE 9 11 5 6 1006.3 - 0.0
17/12:00am 30.4 36.3 26.2 78 3.0 N 7 11 4 6 1006.6 - 0.0
 
Date/Time
CST
Temp
°C
App
Temp
°C
Dew
Point
Rel
Hum
%
Delta-T
°C
Wind Press
QNH
hPa
Press
MSL
hPa
Rain
since 9 am
mm
Dir
 
Spd
km/h
Gust
km/h
Spd
kts
Gust
kts
16/11:30pm 30.8 35.6 26.3 77 3.2 NNW 13 19 7 10 1006.7 - 0.0
16/11:00pm 31.3 35.8 25.8 72 3.9 NW 13 20 7 11 1006.7 - 0.0
16/10:30pm 31.3 34.7 24.1 65 5.0 N 13 17 7 9 1006.8 1006.4 0.0
16/10:00pm 31.8 34.7 23.8 62 5.6 N 15 19 8 10 1006.3 - 0.0
16/09:30pm 32.6 34.8 23.2 57 6.5 N 17 24 9 13 1006.0 - 0.0
16/09:00pm 33.2 34.5 22.4 53 7.4 N 19 22 10 12 1005.4 - 0.0
16/08:30pm 33.8 35.7 22.0 50 8.1 N 15 20 8 11 1005.0 - 0.0
16/08:00pm 34.3 36.3 22.2 49 8.3 N 15 19 8 10 1004.6 - 0.0

Other Formats:

Comma delimited format used in spreadsheet applications
http://www.bom.gov.au/fwo/IDD60801/IDD60801.94216.axf

JavaScript Object Notation format (JSON) in row-major order
http://www.bom.gov.au/fwo/IDD60801/IDD60801.94216.json